createdAt,value
2022-12-29T00:01:15.364Z,21.98
2022-12-29T00:03:51.012Z,20.23
2022-12-29T00:08:52.586Z,19.92
2022-12-29T00:11:29.054Z,20.70
2022-12-29T00:14:21.413Z,17.67
2022-12-29T00:19:44.628Z,20.65
2022-12-29T00:22:32.464Z,21.90
2022-12-29T00:25:07.155Z,20.08
2022-12-29T00:27:58.284Z,20.90
2022-12-29T00:30:51.672Z,19.23
2022-12-29T00:33:43.272Z,18.35
2022-12-29T00:36:32.444Z,20.30
2022-12-29T00:39:37.861Z,21.15
2022-12-29T00:42:30.342Z,20.23
2022-12-29T00:44:57.872Z,22.17
2022-12-29T00:47:30.455Z,23.25
2022-12-29T00:50:01.443Z,17.90
2022-12-29T00:52:34.434Z,19.63
2022-12-29T00:55:03.182Z,20.55
2022-12-29T00:57:31.264Z,18.83
2022-12-29T00:59:59.110Z,18.42
2022-12-29T01:02:29.339Z,19.65
2022-12-29T01:04:58.548Z,19.27
2022-12-29T01:07:29.088Z,21.90
2022-12-29T01:10:27.036Z,20.73
2022-12-29T01:12:58.446Z,18.23
2022-12-29T01:15:29.696Z,20.55
2022-12-29T01:18:01.623Z,22.88
2022-12-29T01:20:32.068Z,23.35
2022-12-29T01:23:03.673Z,25.73
2022-12-29T01:25:34.746Z,24.33
2022-12-29T01:28:04.268Z,23.55
2022-12-29T01:30:33.414Z,23.08
2022-12-29T01:33:04.573Z,23.33
2022-12-29T01:35:36.903Z,23.33
2022-12-29T01:38:10.276Z,23.42
2022-12-29T01:40:47.281Z,24.25
2022-12-29T01:43:19.425Z,22.65
2022-12-29T01:46:01.992Z,23.40
2022-12-29T01:48:30.618Z,23.55
2022-12-29T01:51:00.236Z,22.30
2022-12-29T01:53:31.672Z,22.20
2022-12-29T01:56:09.265Z,22.33
2022-12-29T01:58:47.093Z,22.75
2022-12-29T02:01:23.221Z,23.50
2022-12-29T02:03:54.522Z,22.08
2022-12-29T02:06:41.553Z,22.65
2022-12-29T02:09:09.012Z,23.10
2022-12-29T02:11:42.206Z,22.65
2022-12-29T02:14:14.539Z,22.98
2022-12-29T02:17:19.470Z,21.58
2022-12-29T02:20:31.610Z,22.38
2022-12-29T02:23:30.552Z,21.08
2022-12-29T02:26:23.461Z,20.98
2022-12-29T02:29:34.839Z,23.02
2022-12-29T02:32:29.368Z,22.83
2022-12-29T02:35:01.831Z,21.23
2022-12-29T02:38:15.244Z,22.50
2022-12-29T02:41:13.413Z,21.92
2022-12-29T02:44:05.921Z,21.08
2022-12-29T02:47:02.543Z,21.98
2022-12-29T02:49:41.731Z,21.50
2022-12-29T02:52:19.742Z,21.73
2022-12-29T02:54:51.096Z,22.23
2022-12-29T02:57:32.519Z,21.40
2022-12-29T03:00:12.531Z,21.13
2022-12-29T03:03:19.423Z,21.35
2022-12-29T03:06:19.672Z,21.10
2022-12-29T03:09:41.478Z,20.15
2022-12-29T03:12:50.874Z,19.73
2022-12-29T03:16:05.495Z,20.98
2022-12-29T03:19:13.841Z,21.65
2022-12-29T03:22:17.953Z,23.00
2022-12-29T03:25:33.349Z,21.23
2022-12-29T03:28:29.731Z,21.88
2022-12-29T03:31:03.836Z,20.13
2022-12-29T03:33:36.170Z,23.05
2022-12-29T03:36:07.185Z,22.08
2022-12-29T03:39:05.790Z,22.35
2022-12-29T03:41:36.294Z,21.52
2022-12-29T03:44:08.043Z,22.00
2022-12-29T03:46:39.028Z,22.33
2022-12-29T03:49:08.140Z,22.95
2022-12-29T03:51:37.199Z,23.83
2022-12-29T03:54:08.275Z,23.65
2022-12-29T03:56:36.347Z,24.08
2022-12-29T03:59:08.481Z,23.67
2022-12-29T04:01:43.697Z,22.50
2022-12-29T04:04:13.780Z,22.80
2022-12-29T04:06:45.624Z,24.60
2022-12-29T04:09:15.640Z,23.00
2022-12-29T04:11:51.656Z,24.38
2022-12-29T04:14:24.531Z,22.75
2022-12-29T04:16:53.709Z,23.33
2022-12-29T04:19:24.608Z,23.23
2022-12-29T04:21:52.972Z,23.40
2022-12-29T04:24:24.128Z,22.33
2022-12-29T04:26:56.785Z,22.08
2022-12-29T04:29:46.788Z,22.73
2022-12-29T04:32:46.479Z,23.67
2022-12-29T04:35:17.531Z,22.83
2022-12-29T04:37:46.076Z,22.63
2022-12-29T04:40:17.656Z,22.92
2022-12-29T04:42:49.816Z,24.63
2022-12-29T04:45:21.703Z,23.23
2022-12-29T04:47:54.099Z,22.77
2022-12-29T04:50:44.904Z,25.05
2022-12-29T04:53:24.961Z,22.55
2022-12-29T04:55:56.600Z,25.02
2022-12-29T04:58:27.874Z,24.58
2022-12-29T05:00:58.573Z,29.90
2022-12-29T05:03:33.565Z,32.58
2022-12-29T05:06:03.707Z,32.65
2022-12-29T05:08:33.781Z,29.45
2022-12-29T05:11:06.737Z,28.52
2022-12-29T05:13:38.623Z,27.58
2022-12-29T05:16:08.193Z,24.33
2022-12-29T05:18:38.295Z,28.70
2022-12-29T05:21:11.200Z,22.10
2022-12-29T05:23:45.239Z,31.13
2022-12-29T05:26:37.119Z,29.20
2022-12-29T05:29:26.530Z,30.75
2022-12-29T05:31:56.379Z,30.13
2022-12-29T05:34:28.061Z,28.55
2022-12-29T05:36:59.382Z,23.30
2022-12-29T05:39:28.606Z,24.38
2022-12-29T05:42:04.343Z,24.00
2022-12-29T05:44:55.655Z,25.67
2022-12-29T05:47:47.732Z,26.95
2022-12-29T05:50:32.585Z,27.05
2022-12-29T05:53:28.709Z,26.42
2022-12-29T05:55:57.993Z,25.83
2022-12-29T05:58:26.570Z,27.85
2022-12-29T06:00:56.730Z,33.47
2022-12-29T06:03:32.907Z,34.42
2022-12-29T06:08:36.245Z,40.72
2022-12-29T06:11:07.360Z,67.38
2022-12-29T06:13:36.658Z,47.83
2022-12-29T06:16:13.159Z,33.00
2022-12-29T06:18:44.999Z,35.95
2022-12-29T06:21:12.673Z,30.85
2022-12-29T06:23:43.747Z,34.22
2022-12-29T06:26:13.762Z,37.78
2022-12-29T06:28:41.597Z,38.72
2022-12-29T06:31:14.773Z,38.75
2022-12-29T06:33:49.584Z,36.08
2022-12-29T06:36:18.183Z,36.53
2022-12-29T06:38:48.562Z,36.50
2022-12-29T06:41:18.430Z,38.63
2022-12-29T06:44:07.200Z,35.58
2022-12-29T06:46:51.391Z,36.47
2022-12-29T06:49:20.356Z,36.67
2022-12-29T06:51:51.429Z,35.55
2022-12-29T06:54:21.677Z,33.58
2022-12-29T06:56:49.313Z,62.45
2022-12-29T06:59:19.848Z,58.40
2022-12-29T07:01:51.945Z,53.25
2022-12-29T07:04:20.893Z,41.05
2022-12-29T07:06:51.257Z,45.40
2022-12-29T07:09:21.339Z,55.00
2022-12-29T07:11:53.550Z,60.20
2022-12-29T07:14:24.469Z,51.42
2022-12-29T07:16:56.805Z,50.60
2022-12-29T07:19:24.484Z,44.35
2022-12-29T07:21:57.888Z,40.53
2022-12-29T07:24:29.876Z,38.60
2022-12-29T07:27:00.883Z,38.60
2022-12-29T07:29:31.084Z,40.38
2022-12-29T07:32:02.252Z,66.72
2022-12-29T07:34:36.154Z,89.28
2022-12-29T07:37:04.324Z,72.82
2022-12-29T07:39:35.519Z,79.50
2022-12-29T07:42:05.634Z,72.50
2022-12-29T07:44:43.623Z,76.32
2022-12-29T07:47:40.738Z,74.18
2022-12-29T07:50:08.220Z,86.32
2022-12-29T07:52:38.718Z,69.43
2022-12-29T07:55:11.868Z,64.60
2022-12-29T08:00:18.831Z,47.20
2022-12-29T08:02:49.616Z,46.00
2022-12-29T08:05:17.790Z,40.05
2022-12-29T08:07:50.697Z,37.15
2022-12-29T08:10:18.619Z,30.15
2022-12-29T08:12:46.240Z,27.30
2022-12-29T08:15:14.500Z,25.92
2022-12-29T08:17:46.186Z,24.52
2022-12-29T08:20:16.604Z,29.05
2022-12-29T08:22:45.821Z,29.13
2022-12-29T08:25:16.100Z,29.15
2022-12-29T08:27:43.391Z,27.88
2022-12-29T08:30:15.321Z,29.38
2022-12-29T08:32:44.601Z,28.02
2022-12-29T08:35:14.404Z,28.73
2022-12-29T08:37:43.380Z,28.73
2022-12-29T08:40:15.308Z,30.52
2022-12-29T08:42:45.653Z,30.45
2022-12-29T08:45:13.397Z,30.13
2022-12-29T08:47:48.967Z,31.30
2022-12-29T08:50:18.765Z,28.95
2022-12-29T08:52:51.636Z,28.45
2022-12-29T08:55:24.593Z,29.42
2022-12-29T08:57:58.127Z,33.25
2022-12-29T09:00:29.836Z,31.77
2022-12-29T09:03:03.093Z,29.77
2022-12-29T09:05:43.021Z,31.08
2022-12-29T09:08:11.978Z,30.30
2022-12-29T09:10:42.001Z,33.53
2022-12-29T09:13:16.413Z,33.47
2022-12-29T09:15:44.848Z,34.83
2022-12-29T09:18:20.613Z,33.20
2022-12-29T09:20:52.339Z,32.55
2022-12-29T09:23:23.128Z,33.38
2022-12-29T09:25:51.364Z,33.40
2022-12-29T09:28:21.793Z,33.58
2022-12-29T09:30:52.733Z,34.22
2022-12-29T09:33:21.938Z,34.40
2022-12-29T09:35:57.839Z,35.72
2022-12-29T09:38:29.850Z,33.55
2022-12-29T09:41:39.031Z,34.05
2022-12-29T09:45:01.283Z,36.22
2022-12-29T09:47:50.893Z,38.35
2022-12-29T09:50:31.629Z,38.75
2022-12-29T09:53:33.980Z,41.30
2022-12-29T09:56:08.530Z,37.47
2022-12-29T09:59:22.601Z,34.77
2022-12-29T10:02:28.237Z,37.88
2022-12-29T10:04:59.680Z,36.17
2022-12-29T10:07:49.125Z,35.33
2022-12-29T10:10:29.355Z,32.88
2022-12-29T10:13:25.205Z,24.48
2022-12-29T10:16:26.235Z,15.38
2022-12-29T10:19:32.899Z,14.55
2022-12-29T10:22:40.209Z,17.15
2022-12-29T10:25:33.248Z,13.48
2022-12-29T10:28:08.889Z,11.02
2022-12-29T10:30:37.051Z,11.65
2022-12-29T10:33:19.379Z,6.88
2022-12-29T10:35:48.500Z,6.05
2022-12-29T10:39:06.206Z,4.70
2022-12-29T10:42:19.094Z,4.30
2022-12-29T10:44:51.017Z,4.45
2022-12-29T10:47:34.909Z,3.97
2022-12-29T10:50:07.820Z,3.90
2022-12-29T10:52:44.836Z,3.53
2022-12-29T10:55:35.423Z,3.55
2022-12-29T10:58:18.031Z,3.88
2022-12-29T11:00:58.603Z,4.07
2022-12-29T11:03:55.822Z,3.70
2022-12-29T11:06:29.737Z,3.97
2022-12-29T11:09:42.242Z,5.82
2022-12-29T11:12:35.341Z,6.93
2022-12-29T11:15:22.486Z,4.78
2022-12-29T11:18:00.351Z,4.90
2022-12-29T11:23:58.657Z,6.07
2022-12-29T11:26:33.841Z,5.00
2022-12-29T11:29:22.281Z,6.60
2022-12-29T11:31:58.655Z,4.82
2022-12-29T11:34:40.537Z,3.60
2022-12-29T11:37:43.995Z,4.07
2022-12-29T11:40:24.559Z,3.70
2022-12-29T11:43:00.718Z,5.40
2022-12-29T11:45:46.484Z,3.30
2022-12-29T11:48:19.369Z,2.43
2022-12-29T11:51:02.844Z,2.65
2022-12-29T11:53:57.067Z,3.15
2022-12-29T11:56:49.315Z,2.83
2022-12-29T11:59:42.488Z,3.22
2022-12-29T12:02:49.732Z,2.50
2022-12-29T12:05:29.258Z,3.28
2022-12-29T12:08:20.755Z,3.63
2022-12-29T12:11:28.933Z,4.20
2022-12-29T12:14:44.079Z,3.58
2022-12-29T12:17:50.183Z,3.95
2022-12-29T12:20:51.736Z,3.30
2022-12-29T12:23:39.650Z,3.53
2022-12-29T12:26:35.517Z,3.78
2022-12-29T12:30:00.001Z,3.72
2022-12-29T12:32:53.806Z,5.15
2022-12-29T12:36:00.099Z,3.63
2022-12-29T12:38:54.470Z,3.92
2022-12-29T12:42:00.049Z,5.20
2022-12-29T12:47:49.677Z,5.50
2022-12-29T12:50:45.215Z,3.40
2022-12-29T12:53:32.454Z,3.20
2022-12-29T12:56:48.047Z,3.00
2022-12-29T12:59:46.269Z,3.13
2022-12-29T13:02:52.549Z,4.80
2022-12-29T13:05:53.187Z,3.85
2022-12-29T13:09:00.496Z,3.40
2022-12-29T13:11:52.663Z,3.30
2022-12-29T13:15:16.327Z,3.63
2022-12-29T13:18:00.501Z,4.95
2022-12-29T13:21:33.125Z,6.55
2022-12-29T13:24:36.294Z,7.30
2022-12-29T13:27:19.676Z,7.97
2022-12-29T13:30:06.482Z,7.35
2022-12-29T13:33:04.773Z,6.20
2022-12-29T13:36:12.118Z,8.35
2022-12-29T13:39:05.205Z,38.13
2022-12-29T13:41:40.478Z,14.02
2022-12-29T13:44:24.723Z,5.80
2022-12-29T13:46:54.167Z,5.78
2022-12-29T13:49:27.998Z,5.28
2022-12-29T13:52:07.958Z,4.50
2022-12-29T13:55:17.755Z,6.10
2022-12-29T13:58:05.361Z,13.60
2022-12-29T14:01:06.265Z,11.35
2022-12-29T14:04:04.107Z,8.10
2022-12-29T14:06:44.091Z,13.10
2022-12-29T14:09:58.811Z,15.80
2022-12-29T14:13:01.240Z,18.65
2022-12-29T14:15:31.616Z,15.35
2022-12-29T14:18:18.603Z,11.55
2022-12-29T14:21:06.607Z,8.00
2022-12-29T14:23:55.590Z,8.77
2022-12-29T14:26:39.524Z,7.25
2022-12-29T14:29:33.868Z,7.15
2022-12-29T14:32:06.539Z,10.18
2022-12-29T14:34:51.941Z,12.02
2022-12-29T14:37:29.926Z,9.68
2022-12-29T14:40:27.925Z,10.65
2022-12-29T14:42:58.454Z,11.13
2022-12-29T14:45:46.063Z,11.25
2022-12-29T14:48:49.669Z,9.07
2022-12-29T14:51:39.358Z,8.00
2022-12-29T14:54:37.631Z,7.93
2022-12-29T14:57:21.702Z,5.90
2022-12-29T14:59:53.789Z,6.18
2022-12-29T15:02:28.519Z,5.05
2022-12-29T15:05:04.090Z,10.77
2022-12-29T15:07:33.595Z,15.32
2022-12-29T15:10:17.841Z,13.73
2022-12-29T15:12:53.589Z,8.95
2022-12-29T15:15:39.452Z,17.67
2022-12-29T15:18:46.959Z,12.13
2022-12-29T15:21:19.713Z,6.85
2022-12-29T15:23:49.908Z,7.45
2022-12-29T15:26:23.937Z,9.40
2022-12-29T15:28:57.259Z,12.13
2022-12-29T15:31:30.493Z,11.98
2022-12-29T15:34:28.546Z,11.77
2022-12-29T15:37:00.604Z,10.98
2022-12-29T15:39:35.021Z,10.68
2022-12-29T15:44:58.010Z,11.40
2022-12-29T15:47:40.786Z,11.57
2022-12-29T15:50:29.890Z,11.68
2022-12-29T15:53:01.317Z,11.57
2022-12-29T15:55:44.248Z,12.60
2022-12-29T15:58:25.848Z,12.88
2022-12-29T16:01:00.479Z,14.65
2022-12-29T16:03:51.159Z,16.70
2022-12-29T16:07:12.196Z,20.77
2022-12-29T16:09:49.954Z,25.40
2022-12-29T16:12:24.888Z,22.25
2022-12-29T16:15:15.802Z,19.90
2022-12-29T16:17:53.984Z,15.27
2022-12-29T16:20:34.669Z,15.18
2022-12-29T16:23:05.705Z,13.02
2022-12-29T16:25:40.963Z,20.35
2022-12-29T16:28:28.097Z,18.65
2022-12-29T16:31:20.799Z,21.30
2022-12-29T16:33:54.161Z,23.85
2022-12-29T16:36:41.791Z,30.80
2022-12-29T16:39:24.814Z,21.20
2022-12-29T16:41:57.021Z,13.05
2022-12-29T16:44:33.461Z,12.63
2022-12-29T16:47:23.388Z,11.35
2022-12-29T16:49:54.829Z,11.77
2022-12-29T16:52:36.048Z,10.68
2022-12-29T16:55:05.372Z,12.00
2022-12-29T16:57:42.082Z,12.63
2022-12-29T17:00:24.371Z,11.65
2022-12-29T17:02:55.676Z,11.95
2022-12-29T17:05:26.344Z,11.30
2022-12-29T17:07:56.257Z,12.13
2022-12-29T17:10:47.503Z,12.18
2022-12-29T17:13:18.515Z,12.88
2022-12-29T17:15:48.778Z,13.50
2022-12-29T17:18:21.108Z,11.93
2022-12-29T17:20:51.200Z,13.15
2022-12-29T17:23:26.310Z,13.80
2022-12-29T17:25:59.704Z,12.90
2022-12-29T17:28:32.479Z,12.00
2022-12-29T17:31:05.931Z,11.10
2022-12-29T17:33:44.184Z,11.93
2022-12-29T17:36:13.630Z,10.68
2022-12-29T17:38:44.828Z,10.65
2022-12-29T17:41:17.281Z,11.52
2022-12-29T17:43:48.507Z,12.13
2022-12-29T17:46:17.955Z,11.75
2022-12-29T17:48:53.317Z,13.18
2022-12-29T17:51:22.956Z,13.02
2022-12-29T17:53:54.640Z,13.07
2022-12-29T17:56:24.262Z,11.82
2022-12-29T17:58:55.684Z,13.15
2022-12-29T18:01:32.452Z,12.55
2022-12-29T18:04:03.995Z,12.82
2022-12-29T18:06:33.197Z,13.45
2022-12-29T18:09:03.440Z,13.07
2022-12-29T18:11:31.500Z,13.25
2022-12-29T18:14:06.830Z,14.05
2022-12-29T18:16:37.363Z,14.82
2022-12-29T18:19:04.977Z,12.90
2022-12-29T18:21:32.981Z,15.95
2022-12-29T18:24:00.154Z,12.55
2022-12-29T18:26:32.023Z,12.27
2022-12-29T18:29:00.209Z,12.57
2022-12-29T18:31:33.470Z,9.32
2022-12-29T18:34:10.996Z,10.43
2022-12-29T18:36:41.213Z,12.75
2022-12-29T18:39:11.459Z,9.60
2022-12-29T18:41:43.418Z,9.88
2022-12-29T18:44:16.493Z,10.02
2022-12-29T18:46:47.614Z,10.10
2022-12-29T18:49:16.326Z,10.25
2022-12-29T18:51:47.532Z,9.75
2022-12-29T18:54:31.345Z,13.85
2022-12-29T18:57:01.456Z,13.35
2022-12-29T18:59:31.597Z,14.07
2022-12-29T19:02:06.870Z,12.65
2022-12-29T19:04:39.413Z,11.02
2022-12-29T19:07:07.002Z,12.30
2022-12-29T19:09:34.352Z,12.95
2022-12-29T19:12:03.046Z,12.75
2022-12-29T19:14:31.993Z,12.95
2022-12-29T19:17:01.233Z,12.43
2022-12-29T19:19:32.872Z,12.35
2022-12-29T19:22:03.791Z,12.32
2022-12-29T19:24:32.000Z,12.65
2022-12-29T19:27:03.487Z,20.33
2022-12-29T19:29:32.371Z,15.15
2022-12-29T19:32:01.590Z,16.38
2022-12-29T19:34:31.752Z,17.30
2022-12-29T19:37:01.654Z,18.38
2022-12-29T19:39:31.979Z,16.88
2022-12-29T19:42:05.106Z,15.27
2022-12-29T19:44:37.578Z,15.60
2022-12-29T19:47:05.080Z,16.77
2022-12-29T19:49:34.695Z,17.05
2022-12-29T19:52:03.598Z,18.00
2022-12-29T19:54:33.284Z,13.98
2022-12-29T19:57:03.627Z,11.88
2022-12-29T19:59:33.411Z,16.52
2022-12-29T20:02:06.181Z,15.20
2022-12-29T20:04:34.609Z,13.93
2022-12-29T20:07:05.337Z,13.82
2022-12-29T20:09:33.115Z,13.27
2022-12-29T20:12:03.655Z,15.10
2022-12-29T20:14:33.907Z,15.95
2022-12-29T20:17:11.168Z,18.70
2022-12-29T20:19:47.885Z,20.77
2022-12-29T20:22:17.269Z,17.83
2022-12-29T20:24:50.035Z,16.98
2022-12-29T20:27:20.325Z,16.50
2022-12-29T20:29:53.555Z,13.65
2022-12-29T20:32:27.974Z,11.70
2022-12-29T20:37:26.036Z,12.10
2022-12-29T20:39:56.049Z,12.60
2022-12-29T20:42:24.054Z,12.13
2022-12-29T20:44:55.681Z,11.00
2022-12-29T20:47:24.126Z,9.98
2022-12-29T20:49:52.047Z,10.93
2022-12-29T20:52:21.624Z,9.52
2022-12-29T20:54:54.081Z,9.70
2022-12-29T20:57:24.724Z,9.70
2022-12-29T20:59:54.284Z,8.80
2022-12-29T21:02:26.072Z,9.65
2022-12-29T21:05:23.341Z,8.93
2022-12-29T21:07:52.599Z,8.18
2022-12-29T21:10:23.600Z,8.48
2022-12-29T21:12:53.705Z,8.93
2022-12-29T21:15:23.864Z,9.20
2022-12-29T21:17:54.220Z,9.50
2022-12-29T21:20:33.317Z,9.10
2022-12-29T21:23:03.832Z,9.25
2022-12-29T21:25:40.475Z,10.70
2022-12-29T21:28:15.940Z,10.70
2022-12-29T21:30:50.322Z,10.07
2022-12-29T21:33:20.227Z,10.15
2022-12-29T21:35:48.535Z,10.68
2022-12-29T21:38:18.084Z,11.40
2022-12-29T21:40:48.938Z,10.73
2022-12-29T21:43:17.183Z,10.05
2022-12-29T21:45:53.586Z,9.48
2022-12-29T21:48:21.107Z,8.65
2022-12-29T21:51:18.129Z,9.40
2022-12-29T21:53:49.519Z,8.95
2022-12-29T21:56:21.653Z,8.00
2022-12-29T21:59:10.532Z,9.47
2022-12-29T22:01:57.681Z,10.10
2022-12-29T22:04:47.803Z,8.65
2022-12-29T22:07:36.816Z,9.20
2022-12-29T22:10:32.030Z,9.65
2022-12-29T22:13:03.439Z,9.32
2022-12-29T22:15:37.775Z,8.07
2022-12-29T22:18:14.349Z,7.82
2022-12-29T22:20:45.726Z,9.05
2022-12-29T22:23:17.378Z,7.70
2022-12-29T22:25:47.341Z,8.43
2022-12-29T22:28:20.369Z,7.97
2022-12-29T22:30:51.812Z,6.38
2022-12-29T22:33:19.202Z,5.80
2022-12-29T22:35:52.022Z,6.03
2022-12-29T22:38:19.514Z,5.97
2022-12-29T22:40:50.798Z,5.90
2022-12-29T22:43:20.339Z,6.55
2022-12-29T22:45:50.774Z,6.70
2022-12-29T22:48:18.138Z,5.40
2022-12-29T22:50:50.334Z,6.30
2022-12-29T22:53:20.935Z,6.32
2022-12-29T22:55:51.544Z,6.10
2022-12-29T22:58:19.875Z,5.80
2022-12-29T23:00:51.941Z,5.95
2022-12-29T23:03:22.071Z,6.65
2022-12-29T23:06:06.252Z,6.63
2022-12-29T23:08:38.845Z,7.82
2022-12-29T23:11:12.853Z,8.88
2022-12-29T23:13:42.505Z,7.95
2022-12-29T23:16:10.417Z,8.50
2022-12-29T23:18:39.460Z,9.90
2022-12-29T23:21:11.196Z,9.50
2022-12-29T23:23:58.509Z,9.25
2022-12-29T23:26:46.700Z,8.05
2022-12-29T23:29:18.178Z,7.53
2022-12-29T23:31:48.215Z,7.05
2022-12-29T23:34:18.585Z,6.85
2022-12-29T23:36:49.887Z,6.57
2022-12-29T23:39:32.802Z,6.20
2022-12-29T23:42:00.172Z,6.72
2022-12-29T23:44:28.283Z,6.93
2022-12-29T23:46:58.662Z,6.63
2022-12-29T23:49:28.861Z,5.80
2022-12-29T23:52:00.512Z,6.20
2022-12-29T23:54:30.462Z,6.70
2022-12-29T23:57:01.135Z,6.97
2022-12-29T23:59:32.765Z,5.43
